Frem Nordica — OVIL2 — position and weather

sailwx.info

Track history (hours):
 
Tides and Currents Weather Stations Pressure Air Temp Water Temp Dewpoint Dewpoint Depression Visibility Wind Speed Wind Dir Waves Ship Positions

Frem Nordica

Last reported at 2014-Oct-23 00:06 UTC. Time now 2014-Oct-23 03:06 UTC.
Position N 55°58' E 012°01'.

Length 79 m; draft 2.6 m.

Type: Cargo ship. MMSI: 220439000.

Date/timePositionNaut miles runAvg speedWind from/ knotsBaromVisibWave heightAir tempDewpointWater temp
2014-Oct-23 00:06N 55°58' E 012°01'0 0.0
2014-Oct-22 22:33N 55°58' E 012°01'3 3.0
2014-Oct-22 21:33N 55°57' E 011°56'  
2014-Oct-19 02:15N 54°57' E 014°23'5 7.0
2014-Oct-19 01:33N 54°57' E 014°31'7 6.8
2014-Oct-19 00:33N 54°57' E 014°43'7 7.2
2014-Oct-18 23:33N 54°56' E 014°56'8 7.8
2014-Oct-18 22:33N 54°55' E 015°09'100 8.3
2014-Oct-18 10:28N 54°56' E 018°03'8 8.6
2014-Oct-18 09:33N 54°57' E 018°17'9 8.8
2014-Oct-18 08:33N 54°56' E 018°32'8 8.0
2014-Oct-18 07:33N 54°53' E 018°45'8 8.1
2014-Oct-18 06:33N 54°48' E 018°56'7 7.2
2014-Oct-18 05:33N 54°41' E 018°58'8 8.1
2014-Oct-18 04:33N 54°34' E 018°51'8 8.0
2014-Oct-18 03:34N 54°28' E 018°42'6 6.0
2014-Oct-18 02:33N 54°22' E 018°40'0 0.0
2014-Oct-18 01:24N 54°22' E 018°40'0 0.0
2014-Oct-18 00:33N 54°22' E 018°40'0 0.0
2014-Oct-17 23:30N 54°22' E 018°40'0 0.0
2014-Oct-17 22:33N 54°22' E 018°40'0 0.0
2014-Oct-17 21:34N 54°22' E 018°40'0 0.0
2014-Oct-17 20:33N 54°22' E 018°40'0 0.0
2014-Oct-17 19:34N 54°22' E 018°40'0 0.0
2014-Oct-17 18:33N 54°22' E 018°40'0 0.0
2014-Oct-17 17:33N 54°22' E 018°40'0 0.0
2014-Oct-17 16:33N 54°22' E 018°40'0 0.0
2014-Oct-17 15:30N 54°22' E 018°40'0 0.0
2014-Oct-17 14:34N 54°22' E 018°40'0 0.0
2014-Oct-17 13:33N 54°22' E 018°40'0 0.0
2014-Oct-17 12:33N 54°22' E 018°40'0 0.0
2014-Oct-17 11:33N 54°22' E 018°40'0 0.0
2014-Oct-17 10:33N 54°22' E 018°40'0 0.0
2014-Oct-17 09:33N 54°22' E 018°40'0 0.0
2014-Oct-17 08:33N 54°22' E 018°40'0 0.0
2014-Oct-17 07:33N 54°22' E 018°40'0 0.0
2014-Oct-17 06:33N 54°22' E 018°40'0 0.0
2014-Oct-17 05:33N 54°22' E 018°40'2 2.4
2014-Oct-17 04:33N 54°24' E 018°40'6 6.1
2014-Oct-17 03:33N 54°30' E 018°44'6 6.4
2014-Oct-17 02:33N 54°35' E 018°52'6 6.3
2014-Oct-17 01:33N 54°40' E 018°57'6 5.9
2014-Oct-17 00:33N 54°46' E 018°59'6 6.4
2014-Oct-16 23:33N 54°50' E 018°50'6 6.3
2014-Oct-16 22:33N 54°54' E 018°41'6 5.8
2014-Oct-16 21:33N 54°55' E 018°31'6 5.6
2014-Oct-16 20:33N 54°55' E 018°22'111 6.5
2014-Oct-16 03:19N 54°57' E 015°08'6 8.0
2014-Oct-16 02:33N 54°57' E 014°57'8 8.4
2014-Oct-16 01:33N 54°57' E 014°43'8 8.3
2014-Oct-16 00:33N 54°58' E 014°28'66 7.3
2014-Oct-15 15:33N 55°18' E 012°39'6 6.2
2014-Oct-15 14:33N 55°19' E 012°28'0 0.1
2014-Oct-15 13:31N 55°19' E 012°28'0 0.0
2014-Oct-15 12:31N 55°19' E 012°28'0 0.0
2014-Oct-15 11:31N 55°19' E 012°28'0 0.0
2014-Oct-15 10:28N 55°19' E 012°28'0 0.0
2014-Oct-15 09:28N 55°19' E 012°28'0 0.0
2014-Oct-15 08:19N 55°19' E 012°28'0 0.0
2014-Oct-15 07:28N 55°19' E 012°28'0 0.0
2014-Oct-15 06:31N 55°19' E 012°28'0 0.0
2014-Oct-15 05:31N 55°19' E 012°28'0 0.0
2014-Oct-15 04:31N 55°19' E 012°28'0 0.0
2014-Oct-15 03:31N 55°19' E 012°28'0 0.0
2014-Oct-15 02:25N 55°19' E 012°28'0 0.0
2014-Oct-15 01:28N 55°19' E 012°28'0 0.0
2014-Oct-15 00:25N 55°19' E 012°28'0 0.0
2014-Oct-14 23:31N 55°19' E 012°28'0 0.0
2014-Oct-14 22:31N 55°19' E 012°28'0 0.0
2014-Oct-14 21:25N 55°19' E 012°28'0 0.0
2014-Oct-14 20:25N 55°19' E 012°28'0 0.0
2014-Oct-14 19:31N 55°19' E 012°28'0 0.0
2014-Oct-14 18:31N 55°19' E 012°28'0 0.0
2014-Oct-14 17:22N 55°19' E 012°28'0 0.0
2014-Oct-14 16:31N 55°19' E 012°28'0 0.0
2014-Oct-14 15:28N 55°19' E 012°28'0 0.4
2014-Oct-14 14:33N 55°19' E 012°28'50 7.1
2014-Oct-14 07:31N 54°31' E 012°06'7 7.2
2014-Oct-14 06:29N 54°30' E 011°53'45 7.4
2014-Oct-14 00:28N 54°43' E 010°39'  
Track history (hours):
 
Tides and Currents Weather Stations Pressure Air Temp Water Temp Dewpoint Dewpoint Depression Visibility Wind Speed Wind Dir Waves Ship Positions

Frem Nordica

Last reported at 2014-Oct-23 00:06 UTC. Time now 2014-Oct-23 03:06 UTC.
Position N 55°58' E 012°01'.

Length 79 m; draft 2.6 m.

Type: Cargo ship. MMSI: 220439000.

Date/timePositionNaut miles runAvg speedWind from/ knotsBaromVisibWave heightAir tempDewpointWater temp
2014-Oct-23 00:06N 55°58' E 012°01'0 0.0
2014-Oct-22 22:33N 55°58' E 012°01'3 3.0
2014-Oct-22 21:33N 55°57' E 011°56'  
2014-Oct-19 02:15N 54°57' E 014°23'5 7.0
2014-Oct-19 01:33N 54°57' E 014°31'7 6.8
2014-Oct-19 00:33N 54°57' E 014°43'7 7.2
2014-Oct-18 23:33N 54°56' E 014°56'8 7.8
2014-Oct-18 22:33N 54°55' E 015°09'100 8.3
2014-Oct-18 10:28N 54°56' E 018°03'8 8.6
2014-Oct-18 09:33N 54°57' E 018°17'9 8.8
2014-Oct-18 08:33N 54°56' E 018°32'8 8.0
2014-Oct-18 07:33N 54°53' E 018°45'8 8.1
2014-Oct-18 06:33N 54°48' E 018°56'7 7.2
2014-Oct-18 05:33N 54°41' E 018°58'8 8.1
2014-Oct-18 04:33N 54°34' E 018°51'8 8.0
2014-Oct-18 03:34N 54°28' E 018°42'6 6.0
2014-Oct-18 02:33N 54°22' E 018°40'0 0.0
2014-Oct-18 01:24N 54°22' E 018°40'0 0.0
2014-Oct-18 00:33N 54°22' E 018°40'0 0.0
2014-Oct-17 23:30N 54°22' E 018°40'0 0.0
2014-Oct-17 22:33N 54°22' E 018°40'0 0.0
2014-Oct-17 21:34N 54°22' E 018°40'0 0.0
2014-Oct-17 20:33N 54°22' E 018°40'0 0.0
2014-Oct-17 19:34N 54°22' E 018°40'0 0.0
2014-Oct-17 18:33N 54°22' E 018°40'0 0.0
2014-Oct-17 17:33N 54°22' E 018°40'0 0.0
2014-Oct-17 16:33N 54°22' E 018°40'0 0.0
2014-Oct-17 15:30N 54°22' E 018°40'0 0.0
2014-Oct-17 14:34N 54°22' E 018°40'0 0.0
2014-Oct-17 13:33N 54°22' E 018°40'0 0.0
2014-Oct-17 12:33N 54°22' E 018°40'0 0.0
2014-Oct-17 11:33N 54°22' E 018°40'0 0.0
2014-Oct-17 10:33N 54°22' E 018°40'0 0.0
2014-Oct-17 09:33N 54°22' E 018°40'0 0.0
2014-Oct-17 08:33N 54°22' E 018°40'0 0.0
2014-Oct-17 07:33N 54°22' E 018°40'0 0.0
2014-Oct-17 06:33N 54°22' E 018°40'0 0.0
2014-Oct-17 05:33N 54°22' E 018°40'2 2.4
2014-Oct-17 04:33N 54°24' E 018°40'6 6.1
2014-Oct-17 03:33N 54°30' E 018°44'6 6.4
2014-Oct-17 02:33N 54°35' E 018°52'6 6.3
2014-Oct-17 01:33N 54°40' E 018°57'6 5.9
2014-Oct-17 00:33N 54°46' E 018°59'6 6.4
2014-Oct-16 23:33N 54°50' E 018°50'6 6.3
2014-Oct-16 22:33N 54°54' E 018°41'6 5.8
2014-Oct-16 21:33N 54°55' E 018°31'6 5.6
2014-Oct-16 20:33N 54°55' E 018°22'111 6.5
2014-Oct-16 03:19N 54°57' E 015°08'6 8.0
2014-Oct-16 02:33N 54°57' E 014°57'8 8.4
2014-Oct-16 01:33N 54°57' E 014°43'8 8.3
2014-Oct-16 00:33N 54°58' E 014°28'66 7.3
2014-Oct-15 15:33N 55°18' E 012°39'6 6.2
2014-Oct-15 14:33N 55°19' E 012°28'0 0.1
2014-Oct-15 13:31N 55°19' E 012°28'0 0.0
2014-Oct-15 12:31N 55°19' E 012°28'0 0.0
2014-Oct-15 11:31N 55°19' E 012°28'0 0.0
2014-Oct-15 10:28N 55°19' E 012°28'0 0.0
2014-Oct-15 09:28N 55°19' E 012°28'0 0.0
2014-Oct-15 08:19N 55°19' E 012°28'0 0.0
2014-Oct-15 07:28N 55°19' E 012°28'0 0.0
2014-Oct-15 06:31N 55°19' E 012°28'0 0.0
2014-Oct-15 05:31N 55°19' E 012°28'0 0.0
2014-Oct-15 04:31N 55°19' E 012°28'0 0.0
2014-Oct-15 03:31N 55°19' E 012°28'0 0.0
2014-Oct-15 02:25N 55°19' E 012°28'0 0.0
2014-Oct-15 01:28N 55°19' E 012°28'0 0.0
2014-Oct-15 00:25N 55°19' E 012°28'0 0.0
2014-Oct-14 23:31N 55°19' E 012°28'0 0.0
2014-Oct-14 22:31N 55°19' E 012°28'0 0.0
2014-Oct-14 21:25N 55°19' E 012°28'0 0.0
2014-Oct-14 20:25N 55°19' E 012°28'0 0.0
2014-Oct-14 19:31N 55°19' E 012°28'0 0.0
2014-Oct-14 18:31N 55°19' E 012°28'0 0.0
2014-Oct-14 17:22N 55°19' E 012°28'0 0.0
2014-Oct-14 16:31N 55°19' E 012°28'0 0.0
2014-Oct-14 15:28N 55°19' E 012°28'0 0.4
2014-Oct-14 14:33N 55°19' E 012°28'50 7.1
2014-Oct-14 07:31N 54°31' E 012°06'7 7.2
2014-Oct-14 06:29N 54°30' E 011°53'45 7.4
2014-Oct-14 00:28N 54°43' E 010°39'  

Dump ship's entire track history